sensor_id;sensor_type;location;lat;lon;timestamp;pressure;altitude;pressure_sealevel;temperature
60936;BMP280;46804;51.786;19.520;2023-07-30T00:03:12;158737.19;;;17.69
60936;BMP280;46804;51.786;19.520;2023-07-30T00:07:13;158752.69;;;17.75
60936;BMP280;46804;51.786;19.520;2023-07-30T00:11:14;158755.25;;;17.76
60936;BMP280;46804;51.786;19.520;2023-07-30T00:15:14;158755.25;;;17.76
60936;BMP280;46804;51.786;19.520;2023-07-30T00:19:15;158751.34;;;17.74
60936;BMP280;46804;51.786;19.520;2023-07-30T00:23:16;158725.59;;;17.65
60936;BMP280;46804;51.786;19.520;2023-07-30T00:27:16;158720.41;;;17.63
60936;BMP280;46804;51.786;19.520;2023-07-30T00:31:17;158712.69;;;17.60
60936;BMP280;46804;51.786;19.520;2023-07-30T00:35:18;158702.38;;;17.56
60936;BMP280;46804;51.786;19.520;2023-07-30T00:39:18;158712.69;;;17.60
60936;BMP280;46804;51.786;19.520;2023-07-30T00:43:19;158694.59;;;17.53
60936;BMP280;46804;51.786;19.520;2023-07-30T00:47:21;158679.16;;;17.47
60936;BMP280;46804;51.786;19.520;2023-07-30T00:51:22;158680.44;;;17.47
60936;BMP280;46804;51.786;19.520;2023-07-30T00:55:23;158667.56;;;17.42
60936;BMP280;46804;51.786;19.520;2023-07-30T00:59:24;158670.13;;;17.43
60936;BMP280;46804;51.786;19.520;2023-07-30T01:03:25;158636.56;;;17.31
60936;BMP280;46804;51.786;19.520;2023-07-30T01:07:25;158643.03;;;17.33
60936;BMP280;46804;51.786;19.520;2023-07-30T01:11:26;158637.84;;;17.31
60936;BMP280;46804;51.786;19.520;2023-07-30T01:15:28;158630.13;;;17.28
60936;BMP280;46804;51.786;19.520;2023-07-30T01:19:29;158617.25;;;17.23
60936;BMP280;46804;51.786;19.520;2023-07-30T01:23:30;158628.84;;;17.28
60936;BMP280;46804;51.786;19.520;2023-07-30T01:27:35;158604.38;;;17.18
60936;BMP280;46804;51.786;19.520;2023-07-30T01:31:38;158581.06;;;17.09
60936;BMP280;46804;51.786;19.520;2023-07-30T01:35:40;158574.63;;;17.07
60936;BMP280;46804;51.786;19.520;2023-07-30T01:39:42;158590.13;;;17.13
60936;BMP280;46804;51.786;19.520;2023-07-30T01:43:43;158566.91;;;17.04
60936;BMP280;46804;51.786;19.520;2023-07-30T01:47:44;158551.44;;;16.98
60936;BMP280;46804;51.786;19.520;2023-07-30T01:51:44;158563.03;;;17.02
60936;BMP280;46804;51.786;19.520;2023-07-30T01:55:46;158551.44;;;16.98
60936;BMP280;46804;51.786;19.520;2023-07-30T01:59:46;158547.59;;;16.97
60936;BMP280;46804;51.786;19.520;2023-07-30T02:03:47;158559.19;;;17.01
60936;BMP280;46804;51.786;19.520;2023-07-30T02:07:48;158557.88;;;17.00
60936;BMP280;46804;51.786;19.520;2023-07-30T02:11:49;158566.91;;;17.04
60936;BMP280;46804;51.786;19.520;2023-07-30T02:15:50;158566.91;;;17.04
60936;BMP280;46804;51.786;19.520;2023-07-30T02:19:50;158557.88;;;17.00
60936;BMP280;46804;51.786;19.520;2023-07-30T02:23:51;158579.78;;;17.09
60936;BMP280;46804;51.786;19.520;2023-07-30T02:27:52;158560.47;;;17.01
60936;BMP280;46804;51.786;19.520;2023-07-30T02:31:52;158563.03;;;17.02
60936;BMP280;46804;51.786;19.520;2023-07-30T02:35:53;158568.19;;;17.04
60936;BMP280;46804;51.786;19.520;2023-07-30T02:39:54;158559.19;;;17.01
60936;BMP280;46804;51.786;19.520;2023-07-30T02:43:54;158557.88;;;17.00
60936;BMP280;46804;51.786;19.520;2023-07-30T02:47:55;158559.19;;;17.01
60936;BMP280;46804;51.786;19.520;2023-07-30T02:51:56;158559.19;;;17.01
60936;BMP280;46804;51.786;19.520;2023-07-30T02:55:56;158568.19;;;17.04
60936;BMP280;46804;51.786;19.520;2023-07-30T02:59:57;158534.66;;;16.92
60936;BMP280;46804;51.786;19.520;2023-07-30T03:03:58;158539.81;;;16.94
60936;BMP280;46804;51.786;19.520;2023-07-30T03:07:58;158550.16;;;16.98
60936;BMP280;46804;51.786;19.520;2023-07-30T03:11:59;158537.25;;;16.93
60936;BMP280;46804;51.786;19.520;2023-07-30T03:16:00;158550.16;;;16.98
60936;BMP280;46804;51.786;19.520;2023-07-30T03:20:01;158546.25;;;16.96
60936;BMP280;46804;51.786;19.520;2023-07-30T03:24:02;158539.81;;;16.94
60936;BMP280;46804;51.786;19.520;2023-07-30T03:28:03;158545.00;;;16.96
60936;BMP280;46804;51.786;19.520;2023-07-30T03:32:04;158573.34;;;17.06
60936;BMP280;46804;51.786;19.520;2023-07-30T03:36:05;158574.63;;;17.07
60936;BMP280;46804;51.786;19.520;2023-07-30T03:40:06;158575.97;;;17.07
60936;BMP280;46804;51.786;19.520;2023-07-30T03:44:07;158597.88;;;17.16
60936;BMP280;46804;51.786;19.520;2023-07-30T03:48:08;158621.09;;;17.25
60936;BMP280;46804;51.786;19.520;2023-07-30T03:52:08;158608.22;;;17.20
60936;BMP280;46804;51.786;19.520;2023-07-30T03:56:09;158608.22;;;17.20
60936;BMP280;46804;51.786;19.520;2023-07-30T04:00:10;158631.41;;;17.29
60936;BMP280;46804;51.786;19.520;2023-07-30T04:04:11;158640.47;;;17.32
60936;BMP280;46804;51.786;19.520;2023-07-30T04:08:11;158643.03;;;17.33
60936;BMP280;46804;51.786;19.520;2023-07-30T04:12:12;158663.66;;;17.41
60936;BMP280;46804;51.786;19.520;2023-07-30T04:18:49;158636.56;;;17.31
60936;BMP280;46804;51.786;19.520;2023-07-30T04:22:51;158649.47;;;17.35
60936;BMP280;46804;51.786;19.520;2023-07-30T04:26:52;158659.78;;;17.39
60936;BMP280;46804;51.786;19.520;2023-07-30T04:30:52;158646.91;;;17.34
60936;BMP280;46804;51.786;19.520;2023-07-30T04:34:53;158663.66;;;17.41
60936;BMP280;46804;51.786;19.520;2023-07-30T04:38:54;158663.66;;;17.41
60936;BMP280;46804;51.786;19.520;2023-07-30T04:42:54;158668.84;;;17.43
60936;BMP280;46804;51.786;19.520;2023-07-30T04:46:55;158683.00;;;17.48
60936;BMP280;46804;51.786;19.520;2023-07-30T04:50:56;158702.38;;;17.56
60936;BMP280;46804;51.786;19.520;2023-07-30T04:54:56;158702.38;;;17.56
60936;BMP280;46804;51.786;19.520;2023-07-30T04:58:57;158737.19;;;17.69
60936;BMP280;46804;51.786;19.520;2023-07-30T05:02:58;158735.91;;;17.68
60936;BMP280;46804;51.786;19.520;2023-07-30T05:06:59;158759.13;;;17.77
60936;BMP280;46804;51.786;19.520;2023-07-30T05:10:59;158746.19;;;17.72
60936;BMP280;46804;51.786;19.520;2023-07-30T05:15:00;158735.91;;;17.68
60936;BMP280;46804;51.786;19.520;2023-07-30T05:19:00;158717.81;;;17.62
60936;BMP280;46804;51.786;19.520;2023-07-30T05:23:01;158684.31;;;17.49
60936;BMP280;46804;51.786;19.520;2023-07-30T05:27:02;158662.41;;;17.40
60936;BMP280;46804;51.786;19.520;2023-07-30T05:31:03;158680.44;;;17.47
60936;BMP280;46804;51.786;19.520;2023-07-30T05:35:04;158650.78;;;17.36
60936;BMP280;46804;51.786;19.520;2023-07-30T05:39:05;158634.03;;;17.30
60936;BMP280;46804;51.786;19.520;2023-07-30T05:43:07;158676.56;;;17.46
60936;BMP280;46804;51.786;19.520;2023-07-30T05:47:07;158618.53;;;17.24
60936;BMP280;46804;51.786;19.520;2023-07-30T05:51:08;158614.66;;;17.22
60936;BMP280;46804;51.786;19.520;2023-07-30T05:55:08;158604.38;;;17.18
60936;BMP280;46804;51.786;19.520;2023-07-30T05:59:09;158628.84;;;17.28
60936;BMP280;46804;51.786;19.520;2023-07-30T06:03:10;158675.28;;;17.45
60936;BMP280;46804;51.786;19.520;2023-07-30T06:07:11;158694.59;;;17.53
60936;BMP280;46804;51.786;19.520;2023-07-30T06:11:12;158751.34;;;17.74
60936;BMP280;46804;51.786;19.520;2023-07-30T06:15:13;158741.06;;;17.70
60936;BMP280;46804;51.786;19.520;2023-07-30T06:19:13;158737.19;;;17.69
60936;BMP280;46804;51.786;19.520;2023-07-30T06:23:14;158769.47;;;17.81
60936;BMP280;46804;51.786;19.520;2023-07-30T06:27:14;158840.44;;;18.08
60936;BMP280;46804;51.786;19.520;2023-07-30T06:31:15;158866.28;;;18.18
60936;BMP280;46804;51.786;19.520;2023-07-30T06:35:16;158834.00;;;18.06
60936;BMP280;46804;51.786;19.520;2023-07-30T06:39:16;158849.50;;;18.12
60936;BMP280;46804;51.786;19.520;2023-07-30T06:43:17;158908.81;;;18.35
60936;BMP280;46804;51.786;19.520;2023-07-30T06:47:18;158841.72;;;18.09
60936;BMP280;46804;51.786;19.520;2023-07-30T06:51:19;158831.34;;;18.05
60936;BMP280;46804;51.786;19.520;2023-07-30T06:55:20;158831.34;;;18.05
60936;BMP280;46804;51.786;19.520;2023-07-30T06:59:21;158830.06;;;18.04
60936;BMP280;46804;51.786;19.520;2023-07-30T07:03:22;158859.78;;;18.16
60936;BMP280;46804;51.786;19.520;2023-07-30T07:07:22;158888.16;;;18.27
60936;BMP280;46804;51.786;19.520;2023-07-30T07:11:23;158895.94;;;18.30
60936;BMP280;46804;51.786;19.520;2023-07-30T07:15:24;158895.94;;;18.30
60936;BMP280;46804;51.786;19.520;2023-07-30T07:19:25;158844.31;;;18.10
60936;BMP280;46804;51.786;19.520;2023-07-30T07:23:25;158952.72;;;18.51
60936;BMP280;46804;51.786;19.520;2023-07-30T07:27:26;159006.91;;;18.72
60936;BMP280;46804;51.786;19.520;2023-07-30T07:31:27;159068.91;;;18.96
60936;BMP280;46804;51.786;19.520;2023-07-30T07:35:27;159116.66;;;19.14
60936;BMP280;46804;51.786;19.520;2023-07-30T07:39:28;159151.56;;;19.27
60936;BMP280;46804;51.786;19.520;2023-07-30T07:43:29;159130.91;;;19.19
60936;BMP280;46804;51.786;19.520;2023-07-30T07:47:30;159185.09;;;19.40
60936;BMP280;46804;51.786;19.520;2023-07-30T07:51:31;159028.84;;;18.80
60936;BMP280;46804;51.786;19.520;2023-07-30T07:55:32;159120.56;;;19.15
60936;BMP280;46804;51.786;19.520;2023-07-30T07:59:33;159303.97;;;19.85
60936;BMP280;46804;51.786;19.520;2023-07-30T08:03:34;159413.81;;;20.27
60936;BMP280;46804;51.786;19.520;2023-07-30T08:07:34;159506.91;;;20.63
60936;BMP280;46804;51.786;19.520;2023-07-30T08:11:35;159442.25;;;20.38
60936;BMP280;46804;51.786;19.520;2023-07-30T08:15:36;159601.22;;;20.99
60936;BMP280;46804;51.786;19.520;2023-07-30T08:19:37;159720.25;;;21.44
60936;BMP280;46804;51.786;19.520;2023-07-30T08:23:37;159696.91;;;21.35
60936;BMP280;46804;51.786;19.520;2023-07-30T08:27:38;159927.25;;;22.23
60936;BMP280;46804;51.786;19.520;2023-07-30T08:31:39;159922.09;;;22.21
60936;BMP280;46804;51.786;19.520;2023-07-30T08:35:39;159993.22;;;22.48
60936;BMP280;46804;51.786;19.520;2023-07-30T08:39:40;159999.69;;;22.50
60936;BMP280;46804;51.786;19.520;2023-07-30T08:43:40;160142.09;;;23.05
60936;BMP280;46804;51.786;19.520;2023-07-30T08:47:41;160442.56;;;24.19
60936;BMP280;46804;51.786;19.520;2023-07-30T08:51:42;160622.66;;;24.88
60936;BMP280;46804;51.786;19.520;2023-07-30T08:55:43;160556.63;;;24.62
60936;BMP280;46804;51.786;19.520;2023-07-30T08:59:49;160705.69;;;25.19
60936;BMP280;46804;51.786;19.520;2023-07-30T09:03:51;160805.53;;;25.57
60936;BMP280;46804;51.786;19.520;2023-07-30T09:07:53;160917.03;;;25.99
60936;BMP280;46804;51.786;19.520;2023-07-30T09:11:54;161140.25;;;26.84
60936;BMP280;46804;51.786;19.520;2023-07-30T09:15:55;160984.50;;;26.25
60936;BMP280;46804;51.786;19.520;2023-07-30T09:19:58;161125.94;;;26.79
60936;BMP280;46804;51.786;19.520;2023-07-30T09:24:02;161080.47;;;26.62
60936;BMP280;46804;51.786;19.520;2023-07-30T09:28:06;160664.19;;;25.03
60936;BMP280;46804;51.786;19.520;2023-07-30T09:32:07;160786.06;;;25.50
60936;BMP280;46804;51.786;19.520;2023-07-30T09:36:08;161096.06;;;26.67
60936;BMP280;46804;51.786;19.520;2023-07-30T09:40:11;160919.63;;;26.00
60936;BMP280;46804;51.786;19.520;2023-07-30T09:44:16;161061.03;;;26.54
60936;BMP280;46804;51.786;19.520;2023-07-30T09:48:17;161120.69;;;26.77
60936;BMP280;46804;51.786;19.520;2023-07-30T09:52:18;160792.53;;;25.52
60936;BMP280;46804;51.786;19.520;2023-07-30T09:56:19;161049.38;;;26.50
60936;BMP280;46804;51.786;19.520;2023-07-30T10:00:20;161559.56;;;28.43
60936;BMP280;46804;51.786;19.520;2023-07-30T10:04:21;161128.56;;;26.80
60936;BMP280;46804;51.786;19.520;2023-07-30T10:08:24;161198.59;;;27.06
60936;BMP280;46804;51.786;19.520;2023-07-30T10:12:29;161316.72;;;27.51
60936;BMP280;46804;51.786;19.520;2023-07-30T10:16:31;161162.25;;;26.93
60936;BMP280;46804;51.786;19.520;2023-07-30T10:20:32;160939.03;;;26.08
60936;BMP280;46804;51.786;19.520;2023-07-30T10:24:33;161260.91;;;27.30
60936;BMP280;46804;51.786;19.520;2023-07-30T10:28:33;161545.25;;;28.38
60936;BMP280;46804;51.786;19.520;2023-07-30T10:32:58;161599.84;;;28.59
60936;BMP280;46804;51.786;19.520;2023-07-30T10:36:59;161341.41;;;27.61
60936;BMP280;46804;51.786;19.520;2023-07-30T10:41:12;161740.16;;;29.12
60936;BMP280;46804;51.786;19.520;2023-07-30T10:45:12;161828.53;;;29.45
60936;BMP280;46804;51.786;19.520;2023-07-30T10:49:13;161529.69;;;28.32
60936;BMP280;46804;51.786;19.520;2023-07-30T10:53:14;161324.53;;;27.54
60936;BMP280;46804;51.786;19.520;2023-07-30T10:57:19;161633.63;;;28.71
60936;BMP280;46804;51.786;19.520;2023-07-30T11:01:20;161729.72;;;29.08
60936;BMP280;46804;51.786;19.520;2023-07-30T11:05:21;161923.41;;;29.81
60936;BMP280;46804;51.786;19.520;2023-07-30T11:09:24;161770.03;;;29.23
60936;BMP280;46804;51.786;19.520;2023-07-30T11:13:25;161737.53;;;29.11
60936;BMP280;46804;51.786;19.520;2023-07-30T11:17:26;161797.31;;;29.34
60936;BMP280;46804;51.786;19.520;2023-07-30T11:21:27;162048.22;;;30.29
60936;BMP280;46804;51.786;19.520;2023-07-30T11:25:27;162418.94;;;31.69
60936;BMP280;46804;51.786;19.520;2023-07-30T11:29:28;162314.84;;;31.30
60936;BMP280;46804;51.786;19.520;2023-07-30T11:33:29;161807.72;;;29.38
60936;BMP280;46804;51.786;19.520;2023-07-30T11:37:30;161910.41;;;29.76
60936;BMP280;46804;51.786;19.520;2023-07-30T11:41:31;161968.88;;;29.99
60936;BMP280;46804;51.786;19.520;2023-07-30T11:45:31;162160.00;;;30.71
60936;BMP280;46804;51.786;19.520;2023-07-30T11:49:32;162134.03;;;30.61
60936;BMP280;46804;51.786;19.520;2023-07-30T11:53:51;162299.22;;;31.24
60936;BMP280;46804;51.786;19.520;2023-07-30T11:57:52;162193.88;;;30.84
60936;BMP280;46804;51.786;19.520;2023-07-30T12:01:53;162253.72;;;31.07
60936;BMP280;46804;51.786;19.520;2023-07-30T12:05:54;162252.41;;;31.06
60936;BMP280;46804;51.786;19.520;2023-07-30T12:09:54;162104.13;;;30.50
60936;BMP280;46804;51.786;19.520;2023-07-30T12:13:55;162279.69;;;31.16
60936;BMP280;46804;51.786;19.520;2023-07-30T12:17:56;162408.53;;;31.65
60936;BMP280;46804;51.786;19.520;2023-07-30T12:21:56;161922.13;;;29.81
60936;BMP280;46804;51.786;19.520;2023-07-30T12:25:57;162165.22;;;30.73
60936;BMP280;46804;51.786;19.520;2023-07-30T12:29:58;161979.28;;;30.03
60936;BMP280;46804;51.786;19.520;2023-07-30T12:33:58;162339.59;;;31.39
60936;BMP280;46804;51.786;19.520;2023-07-30T12:38:00;162638.91;;;32.52
60936;BMP280;46804;51.786;19.520;2023-07-30T12:42:00;162731.38;;;32.87
60936;BMP280;46804;51.786;19.520;2023-07-30T12:46:01;161942.91;;;29.89
60936;BMP280;46804;51.786;19.520;2023-07-30T12:50:03;162455.41;;;31.83
60936;BMP280;46804;51.786;19.520;2023-07-30T12:54:04;162517.84;;;32.07
60936;BMP280;46804;51.786;19.520;2023-07-30T12:58:04;162226.38;;;30.96
60936;BMP280;46804;51.786;19.520;2023-07-30T13:02:05;161740.16;;;29.12
60936;BMP280;46804;51.786;19.520;2023-07-30T13:06:06;161955.91;;;29.94
60936;BMP280;46804;51.786;19.520;2023-07-30T13:10:07;162339.59;;;31.39
60936;BMP280;46804;51.786;19.520;2023-07-30T13:14:08;162304.44;;;31.26
60936;BMP280;46804;51.786;19.520;2023-07-30T13:18:09;162625.91;;;32.48
60936;BMP280;46804;51.786;19.520;2023-07-30T13:22:10;162264.13;;;31.11
60936;BMP280;46804;51.786;19.520;2023-07-30T13:26:11;162213.41;;;30.91
60936;BMP280;46804;51.786;19.520;2023-07-30T13:30:11;162238.09;;;31.01
60936;BMP280;46804;51.786;19.520;2023-07-30T13:34:12;162045.66;;;30.28
60936;BMP280;46804;51.786;19.520;2023-07-30T13:38:13;162206.91;;;30.89
60936;BMP280;46804;51.786;19.520;2023-07-30T13:42:13;162183.50;;;30.80
60936;BMP280;46804;51.786;19.520;2023-07-30T13:46:14;161976.66;;;30.02
60936;BMP280;46804;51.786;19.520;2023-07-30T13:50:15;162115.84;;;30.54
60936;BMP280;46804;51.786;19.520;2023-07-30T13:54:15;162236.81;;;31.00
60936;BMP280;46804;51.786;19.520;2023-07-30T13:58:16;162049.53;;;30.29
60936;BMP280;46804;51.786;19.520;2023-07-30T14:02:17;162031.34;;;30.22
60936;BMP280;46804;51.786;19.520;2023-07-30T14:06:18;161952.00;;;29.92
60936;BMP280;46804;51.786;19.520;2023-07-30T14:10:18;161841.50;;;29.50
60936;BMP280;46804;51.786;19.520;2023-07-30T14:14:19;162093.72;;;30.46
60936;BMP280;46804;51.786;19.520;2023-07-30T14:18:24;162040.44;;;30.26
60936;BMP280;46804;51.786;19.520;2023-07-30T14:22:24;162166.56;;;30.74
60936;BMP280;46804;51.786;19.520;2023-07-30T14:26:25;161818.13;;;29.41
60936;BMP280;46804;51.786;19.520;2023-07-30T14:30:26;161734.91;;;29.10
60936;BMP280;46804;51.786;19.520;2023-07-30T14:34:26;161447.88;;;28.01
60936;BMP280;46804;51.786;19.520;2023-07-30T14:38:27;161417.97;;;27.90
60936;BMP280;46804;51.786;19.520;2023-07-30T14:42:28;161442.66;;;27.99
60936;BMP280;46804;51.786;19.520;2023-07-30T14:46:29;161462.19;;;28.06
60936;BMP280;46804;51.786;19.520;2023-07-30T14:50:30;161542.66;;;28.37
60936;BMP280;46804;51.786;19.520;2023-07-30T14:54:30;161619.31;;;28.66
60936;BMP280;46804;51.786;19.520;2023-07-30T14:58:31;161599.84;;;28.59
60936;BMP280;46804;51.786;19.520;2023-07-30T15:02:32;161702.47;;;28.98
60936;BMP280;46804;51.786;19.520;2023-07-30T15:06:33;161721.94;;;29.05
60936;BMP280;46804;51.786;19.520;2023-07-30T15:10:34;161790.81;;;29.31
60936;BMP280;46804;51.786;19.520;2023-07-30T15:14:34;161924.69;;;29.82
60936;BMP280;46804;51.786;19.520;2023-07-30T15:18:35;161902.66;;;29.74
60936;BMP280;46804;51.786;19.520;2023-07-30T15:22:35;161961.13;;;29.96
60936;BMP280;46804;51.786;19.520;2023-07-30T15:26:36;161985.78;;;30.05
60936;BMP280;46804;51.786;19.520;2023-07-30T15:30:38;161902.66;;;29.74
60936;BMP280;46804;51.786;19.520;2023-07-30T15:34:38;161922.13;;;29.81
60936;BMP280;46804;51.786;19.520;2023-07-30T15:38:40;161854.47;;;29.55
60936;BMP280;46804;51.786;19.520;2023-07-30T15:42:41;161797.31;;;29.34
60936;BMP280;46804;51.786;19.520;2023-07-30T15:46:45;161828.53;;;29.45
60936;BMP280;46804;51.786;19.520;2023-07-30T15:50:45;161828.53;;;29.45
60936;BMP280;46804;51.786;19.520;2023-07-30T15:54:46;161720.63;;;29.04
60936;BMP280;46804;51.786;19.520;2023-07-30T15:58:47;161690.78;;;28.93
60936;BMP280;46804;51.786;19.520;2023-07-30T16:02:48;161579.00;;;28.51
60936;BMP280;46804;51.786;19.520;2023-07-30T16:06:48;161536.19;;;28.35
60936;BMP280;46804;51.786;19.520;2023-07-30T16:10:50;161567.31;;;28.46
60936;BMP280;46804;51.786;19.520;2023-07-30T16:14:51;161454.34;;;28.03
60936;BMP280;46804;51.786;19.520;2023-07-30T16:18:53;161456.97;;;28.04
60936;BMP280;46804;51.786;19.520;2023-07-30T16:22:55;161502.41;;;28.22
60936;BMP280;46804;51.786;19.520;2023-07-30T16:26:56;161412.78;;;27.88
60936;BMP280;46804;51.786;19.520;2023-07-30T16:30:57;161384.22;;;27.77
60936;BMP280;46804;51.786;19.520;2023-07-30T16:34:58;161125.94;;;26.79
60936;BMP280;46804;51.786;19.520;2023-07-30T16:38:59;161129.84;;;26.80
60936;BMP280;46804;51.786;19.520;2023-07-30T16:43:00;161020.84;;;26.39
60936;BMP280;46804;51.786;19.520;2023-07-30T16:47:00;160981.91;;;26.24
60936;BMP280;46804;51.786;19.520;2023-07-30T16:51:01;160880.72;;;25.86
60936;BMP280;46804;51.786;19.520;2023-07-30T16:55:02;160832.75;;;25.67
60936;BMP280;46804;51.786;19.520;2023-07-30T16:59:03;160569.56;;;24.67
60936;BMP280;46804;51.786;19.520;2023-07-30T17:03:04;160546.25;;;24.58
60936;BMP280;46804;51.786;19.520;2023-07-30T17:07:05;160484.06;;;24.35
60936;BMP280;46804;51.786;19.520;2023-07-30T17:11:06;160421.81;;;24.11
60936;BMP280;46804;51.786;19.520;2023-07-30T17:15:08;160398.50;;;24.02
60936;BMP280;46804;51.786;19.520;2023-07-30T17:19:09;160348.00;;;23.83
60936;BMP280;46804;51.786;19.520;2023-07-30T17:23:10;160322.13;;;23.73
60936;BMP280;46804;51.786;19.520;2023-07-30T17:27:10;160296.19;;;23.63
60936;BMP280;46804;51.786;19.520;2023-07-30T17:31:14;160265.09;;;23.52
60936;BMP280;46804;51.786;19.520;2023-07-30T17:35:15;160248.25;;;23.45
60936;BMP280;46804;51.786;19.520;2023-07-30T17:39:15;160231.44;;;23.39
60936;BMP280;46804;51.786;19.520;2023-07-30T17:43:16;160146.00;;;23.06
60936;BMP280;46804;51.786;19.520;2023-07-30T17:47:18;160147.28;;;23.07
60936;BMP280;46804;51.786;19.520;2023-07-30T17:51:19;160046.25;;;22.68
60936;BMP280;46804;51.786;19.520;2023-07-30T17:55:20;160007.47;;;22.53
60936;BMP280;46804;51.786;19.520;2023-07-30T17:59:22;159967.38;;;22.38
60936;BMP280;46804;51.786;19.520;2023-07-30T18:03:24;159969.94;;;22.39
60936;BMP280;46804;51.786;19.520;2023-07-30T18:07:25;159947.94;;;22.31
60936;BMP280;46804;51.786;19.520;2023-07-30T18:11:26;159916.91;;;22.19
60936;BMP280;46804;51.786;19.520;2023-07-30T18:15:27;159966.03;;;22.38
60936;BMP280;46804;51.786;19.520;2023-07-30T18:19:27;159924.66;;;22.22
60936;BMP280;46804;51.786;19.520;2023-07-30T18:23:28;159931.09;;;22.24
60936;BMP280;46804;51.786;19.520;2023-07-30T18:27:29;159968.66;;;22.39
60936;BMP280;46804;51.786;19.520;2023-07-30T18:31:29;159885.78;;;22.07
60936;BMP280;46804;51.786;19.520;2023-07-30T18:35:30;159777.13;;;21.66
60936;BMP280;46804;51.786;19.520;2023-07-30T18:39:31;159680.09;;;21.29
60936;BMP280;46804;51.786;19.520;2023-07-30T18:43:32;159597.38;;;20.97
60936;BMP280;46804;51.786;19.520;2023-07-30T18:47:33;159523.72;;;20.69
60936;BMP280;46804;51.786;19.520;2023-07-30T18:51:34;159528.88;;;20.71
60936;BMP280;46804;51.786;19.520;2023-07-30T18:55:35;159550.88;;;20.79
60936;BMP280;46804;51.786;19.520;2023-07-30T18:59:37;159530.16;;;20.72
60936;BMP280;46804;51.786;19.520;2023-07-30T19:03:38;159492.63;;;20.57
60936;BMP280;46804;51.786;19.520;2023-07-30T19:07:38;159490.06;;;20.56
60936;BMP280;46804;51.786;19.520;2023-07-30T19:11:39;159456.44;;;20.43
60936;BMP280;46804;51.786;19.520;2023-07-30T19:15:40;159450.00;;;20.41
60936;BMP280;46804;51.786;19.520;2023-07-30T19:19:40;159418.94;;;20.29
60936;BMP280;46804;51.786;19.520;2023-07-30T19:23:41;159439.66;;;20.37
60936;BMP280;46804;51.786;19.520;2023-07-30T19:27:42;159387.97;;;20.17
60936;BMP280;46804;51.786;19.520;2023-07-30T19:31:42;159381.50;;;20.15
60936;BMP280;46804;51.786;19.520;2023-07-30T19:35:43;159360.81;;;20.07
60936;BMP280;46804;51.786;19.520;2023-07-30T19:39:45;159377.63;;;20.13
60936;BMP280;46804;51.786;19.520;2023-07-30T19:43:45;159350.47;;;20.03
60936;BMP280;46804;51.786;19.520;2023-07-30T19:47:47;159262.59;;;19.70
60936;BMP280;46804;51.786;19.520;2023-07-30T19:51:47;159209.69;;;19.49
60936;BMP280;46804;51.786;19.520;2023-07-30T19:55:48;159210.97;;;19.50
60936;BMP280;46804;51.786;19.520;2023-07-30T19:59:49;159186.44;;;19.40
60936;BMP280;46804;51.786;19.520;2023-07-30T20:03:50;159190.28;;;19.42
60936;BMP280;46804;51.786;19.520;2023-07-30T20:07:50;159172.19;;;19.35
60936;BMP280;46804;51.786;19.520;2023-07-30T20:11:51;159159.31;;;19.30
60936;BMP280;46804;51.786;19.520;2023-07-30T20:15:54;159167.03;;;19.33
60936;BMP280;46804;51.786;19.520;2023-07-30T20:19:55;159136.06;;;19.21
60936;BMP280;46804;51.786;19.520;2023-07-30T20:23:56;159148.97;;;19.26
60936;BMP280;46804;51.786;19.520;2023-07-30T20:27:56;159152.84;;;19.28
60936;BMP280;46804;51.786;19.520;2023-07-30T20:31:57;159128.34;;;19.18
60936;BMP280;46804;51.786;19.520;2023-07-30T20:35:59;159119.28;;;19.15
60936;BMP280;46804;51.786;19.520;2023-07-30T20:40:00;159111.56;;;19.12
60936;BMP280;46804;51.786;19.520;2023-07-30T20:44:01;159112.84;;;19.12
60936;BMP280;46804;51.786;19.520;2023-07-30T20:48:01;159116.66;;;19.14
60936;BMP280;46804;51.786;19.520;2023-07-30T20:52:02;159129.63;;;19.19
60936;BMP280;46804;51.786;19.520;2023-07-30T20:56:03;159092.16;;;19.05
60936;BMP280;46804;51.786;19.520;2023-07-30T21:00:04;159061.13;;;18.93
60936;BMP280;46804;51.786;19.520;2023-07-30T21:04:05;159054.69;;;18.90
60936;BMP280;46804;51.786;19.520;2023-07-30T21:08:06;159043.06;;;18.86
60936;BMP280;46804;51.786;19.520;2023-07-30T21:12:07;159006.91;;;18.72
60936;BMP280;46804;51.786;19.520;2023-07-30T21:16:08;158974.66;;;18.60
60936;BMP280;46804;51.786;19.520;2023-07-30T21:20:08;158921.72;;;18.39
60936;BMP280;46804;51.786;19.520;2023-07-30T21:24:09;158904.94;;;18.33
60936;BMP280;46804;51.786;19.520;2023-07-30T21:28:10;158903.66;;;18.33
60936;BMP280;46804;51.786;19.520;2023-07-30T21:32:11;158929.50;;;18.42
60936;BMP280;46804;51.786;19.520;2023-07-30T21:36:12;158942.38;;;18.47
60936;BMP280;46804;51.786;19.520;2023-07-30T21:40:13;158961.72;;;18.55
60936;BMP280;46804;51.786;19.520;2023-07-30T21:44:13;158963.06;;;18.55
60936;BMP280;46804;51.786;19.520;2023-07-30T21:48:14;158969.50;;;18.58
60936;BMP280;46804;51.786;19.520;2023-07-30T21:52:23;158964.31;;;18.56
60936;BMP280;46804;51.786;19.520;2023-07-30T21:56:24;158983.66;;;18.63
60936;BMP280;46804;51.786;19.520;2023-07-30T22:00:24;158983.66;;;18.63
60936;BMP280;46804;51.786;19.520;2023-07-30T22:04:25;158982.38;;;18.63
60936;BMP280;46804;51.786;19.520;2023-07-30T22:08:26;158987.56;;;18.65
60936;BMP280;46804;51.786;19.520;2023-07-30T22:12:26;158975.94;;;18.60
60936;BMP280;46804;51.786;19.520;2023-07-30T22:16:27;158987.56;;;18.65
60936;BMP280;46804;51.786;19.520;2023-07-30T22:20:28;158978.50;;;18.61
60936;BMP280;46804;51.786;19.520;2023-07-30T22:24:29;158965.59;;;18.56
60936;BMP280;46804;51.786;19.520;2023-07-30T22:28:29;158970.78;;;18.58
60936;BMP280;46804;51.786;19.520;2023-07-30T22:32:30;158952.72;;;18.51